<?xml version="1.0" encoding="UTF-8" standalone="no" ?>
<gpx xmlns="http://www.topografix.com/GPX/1/1" xmlns:xsi="http://www.w3.org/2001/XMLSchema-instance" xsi:schemaLocation="http://www.topografix.com/GPX/1/1 http://www.topografix.com/GPX/1/1/gpx.xsd" version="1.1" creator="VisuGPX - https://www.visugpx.com">
  <metadata>
    <name>les gorges du Fourperet</name>
  </metadata>
  <trk>
    <name><![CDATA[les gorges du Fourperet]]></name>
    <trkseg>
      <trkpt lat="46.75263" lon="6.30506">
        <ele>897</ele>
        <time>2021-11-21T16:06:17+01:00</time>
      </trkpt>
      <trkpt lat="46.75304" lon="6.30515">
        <ele>896</ele>
        <time>2021-11-21T16:06:22+01:00</time>
      </trkpt>
      <trkpt lat="46.75355" lon="6.30549">
        <ele>895</ele>
        <time>2021-11-21T16:06:27+01:00</time>
      </trkpt>
      <trkpt lat="46.75421" lon="6.30607">
        <ele>895</ele>
        <time>2021-11-21T16:06:32+01:00</time>
      </trkpt>
      <trkpt lat="46.75467" lon="6.30515">
        <ele>895</ele>
        <time>2021-11-21T16:06:37+01:00</time>
      </trkpt>
      <trkpt lat="46.75502" lon="6.30431">
        <ele>895</ele>
        <time>2021-11-21T16:06:42+01:00</time>
      </trkpt>
      <trkpt lat="46.75514" lon="6.3042">
        <ele>895</ele>
        <time>2021-11-21T16:06:47+01:00</time>
      </trkpt>
      <trkpt lat="46.7553" lon="6.30369">
        <ele>895</ele>
        <time>2021-11-21T16:06:52+01:00</time>
      </trkpt>
      <trkpt lat="46.75557" lon="6.30321">
        <ele>897</ele>
        <time>2021-11-21T16:06:57+01:00</time>
      </trkpt>
      <trkpt lat="46.75564" lon="6.30259">
        <ele>898</ele>
        <time>2021-11-21T16:07:02+01:00</time>
      </trkpt>
      <trkpt lat="46.75583" lon="6.30212">
        <ele>900</ele>
        <time>2021-11-21T16:07:07+01:00</time>
      </trkpt>
      <trkpt lat="46.7561" lon="6.3018">
        <ele>897</ele>
        <time>2021-11-21T16:07:12+01:00</time>
      </trkpt>
      <trkpt lat="46.75645" lon="6.3015">
        <ele>896</ele>
        <time>2021-11-21T16:07:17+01:00</time>
      </trkpt>
      <trkpt lat="46.75727" lon="6.30118">
        <ele>909</ele>
        <time>2021-11-21T16:07:22+01:00</time>
      </trkpt>
      <trkpt lat="46.75792" lon="6.30047">
        <ele>906</ele>
        <time>2021-11-21T16:07:27+01:00</time>
      </trkpt>
      <trkpt lat="46.75829" lon="6.29987">
        <ele>898</ele>
        <time>2021-11-21T16:07:32+01:00</time>
      </trkpt>
      <trkpt lat="46.75901" lon="6.2992">
        <ele>900</ele>
        <time>2021-11-21T16:07:37+01:00</time>
      </trkpt>
      <trkpt lat="46.75945" lon="6.29867">
        <ele>894</ele>
        <time>2021-11-21T16:07:42+01:00</time>
      </trkpt>
      <trkpt lat="46.76009" lon="6.29815">
        <ele>897</ele>
        <time>2021-11-21T16:07:47+01:00</time>
      </trkpt>
      <trkpt lat="46.76071" lon="6.29772">
        <ele>897</ele>
        <time>2021-11-21T16:07:52+01:00</time>
      </trkpt>
      <trkpt lat="46.76104" lon="6.29751">
        <ele>901</ele>
        <time>2021-11-21T16:07:57+01:00</time>
      </trkpt>
      <trkpt lat="46.76118" lon="6.29731">
        <ele>902</ele>
        <time>2021-11-21T16:08:02+01:00</time>
      </trkpt>
      <trkpt lat="46.76142" lon="6.29736">
        <ele>908</ele>
        <time>2021-11-21T16:08:07+01:00</time>
      </trkpt>
      <trkpt lat="46.76151" lon="6.29725">
        <ele>908</ele>
        <time>2021-11-21T16:08:12+01:00</time>
      </trkpt>
      <trkpt lat="46.76159" lon="6.29714">
        <ele>909</ele>
        <time>2021-11-21T16:08:17+01:00</time>
      </trkpt>
      <trkpt lat="46.76234" lon="6.29787">
        <ele>917</ele>
        <time>2021-11-21T16:08:22+01:00</time>
      </trkpt>
      <trkpt lat="46.76314" lon="6.29937">
        <ele>928</ele>
        <time>2021-11-21T16:08:27+01:00</time>
      </trkpt>
      <trkpt lat="46.76381" lon="6.30105">
        <ele>931</ele>
        <time>2021-11-21T16:08:32+01:00</time>
      </trkpt>
      <trkpt lat="46.76449" lon="6.30203">
        <ele>939</ele>
        <time>2021-11-21T16:08:37+01:00</time>
      </trkpt>
      <trkpt lat="46.76497" lon="6.30294">
        <ele>940</ele>
        <time>2021-11-21T16:08:42+01:00</time>
      </trkpt>
      <trkpt lat="46.76517" lon="6.3042">
        <ele>945</ele>
        <time>2021-11-21T16:08:47+01:00</time>
      </trkpt>
      <trkpt lat="46.76553" lon="6.30508">
        <ele>950</ele>
        <time>2021-11-21T16:08:52+01:00</time>
      </trkpt>
      <trkpt lat="46.76577" lon="6.30555">
        <ele>951</ele>
        <time>2021-11-21T16:08:57+01:00</time>
      </trkpt>
      <trkpt lat="46.76577" lon="6.30594">
        <ele>950</ele>
        <time>2021-11-21T16:09:02+01:00</time>
      </trkpt>
      <trkpt lat="46.76615" lon="6.30761">
        <ele>952</ele>
        <time>2021-11-21T16:09:07+01:00</time>
      </trkpt>
      <trkpt lat="46.76656" lon="6.30847">
        <ele>957</ele>
        <time>2021-11-21T16:09:12+01:00</time>
      </trkpt>
      <trkpt lat="46.76758" lon="6.30987">
        <ele>964</ele>
        <time>2021-11-21T16:09:17+01:00</time>
      </trkpt>
      <trkpt lat="46.76803" lon="6.31049">
        <ele>965</ele>
        <time>2021-11-21T16:09:22+01:00</time>
      </trkpt>
      <trkpt lat="46.76843" lon="6.31178">
        <ele>963</ele>
        <time>2021-11-21T16:09:27+01:00</time>
      </trkpt>
      <trkpt lat="46.76868" lon="6.31291">
        <ele>964</ele>
        <time>2021-11-21T16:09:32+01:00</time>
      </trkpt>
      <trkpt lat="46.76894" lon="6.31373">
        <ele>968</ele>
        <time>2021-11-21T16:09:37+01:00</time>
      </trkpt>
      <trkpt lat="46.769" lon="6.31493">
        <ele>968</ele>
        <time>2021-11-21T16:09:42+01:00</time>
      </trkpt>
      <trkpt lat="46.76922" lon="6.316">
        <ele>974</ele>
        <time>2021-11-21T16:09:47+01:00</time>
      </trkpt>
      <trkpt lat="46.76916" lon="6.31703">
        <ele>975</ele>
        <time>2021-11-21T16:09:52+01:00</time>
      </trkpt>
      <trkpt lat="46.76859" lon="6.31881">
        <ele>972</ele>
        <time>2021-11-21T16:09:57+01:00</time>
      </trkpt>
      <trkpt lat="46.76756" lon="6.31993">
        <ele>968</ele>
        <time>2021-11-21T16:10:02+01:00</time>
      </trkpt>
      <trkpt lat="46.76665" lon="6.3206">
        <ele>956</ele>
        <time>2021-11-21T16:10:07+01:00</time>
      </trkpt>
      <trkpt lat="46.76603" lon="6.3212">
        <ele>953</ele>
        <time>2021-11-21T16:10:12+01:00</time>
      </trkpt>
      <trkpt lat="46.76562" lon="6.32102">
        <ele>951</ele>
        <time>2021-11-21T16:10:17+01:00</time>
      </trkpt>
      <trkpt lat="46.76521" lon="6.32102">
        <ele>947</ele>
        <time>2021-11-21T16:10:22+01:00</time>
      </trkpt>
      <trkpt lat="46.76503" lon="6.32085">
        <ele>948</ele>
        <time>2021-11-21T16:10:27+01:00</time>
      </trkpt>
      <trkpt lat="46.76465" lon="6.32075">
        <ele>948</ele>
        <time>2021-11-21T16:10:32+01:00</time>
      </trkpt>
      <trkpt lat="46.7644" lon="6.32092">
        <ele>944</ele>
        <time>2021-11-21T16:10:37+01:00</time>
      </trkpt>
      <trkpt lat="46.76386" lon="6.31999">
        <ele>952</ele>
        <time>2021-11-21T16:10:42+01:00</time>
      </trkpt>
      <trkpt lat="46.7629" lon="6.31864">
        <ele>962</ele>
        <time>2021-11-21T16:10:47+01:00</time>
      </trkpt>
      <trkpt lat="46.76231" lon="6.31793">
        <ele>968</ele>
        <time>2021-11-21T16:10:52+01:00</time>
      </trkpt>
      <trkpt lat="46.76173" lon="6.31665">
        <ele>971</ele>
        <time>2021-11-21T16:10:57+01:00</time>
      </trkpt>
      <trkpt lat="46.76117" lon="6.31521">
        <ele>975</ele>
        <time>2021-11-21T16:11:02+01:00</time>
      </trkpt>
      <trkpt lat="46.76099" lon="6.31461">
        <ele>975</ele>
        <time>2021-11-21T16:11:07+01:00</time>
      </trkpt>
      <trkpt lat="46.76076" lon="6.31349">
        <ele>975</ele>
        <time>2021-11-21T16:11:12+01:00</time>
      </trkpt>
      <trkpt lat="46.76008" lon="6.31148">
        <ele>972</ele>
        <time>2021-11-21T16:11:17+01:00</time>
      </trkpt>
      <trkpt lat="46.75986" lon="6.31083">
        <ele>968</ele>
        <time>2021-11-21T16:11:22+01:00</time>
      </trkpt>
      <trkpt lat="46.75974" lon="6.31008">
        <ele>969</ele>
        <time>2021-11-21T16:11:27+01:00</time>
      </trkpt>
      <trkpt lat="46.75924" lon="6.30892">
        <ele>968</ele>
        <time>2021-11-21T16:11:32+01:00</time>
      </trkpt>
      <trkpt lat="46.75854" lon="6.30755">
        <ele>962</ele>
        <time>2021-11-21T16:11:37+01:00</time>
      </trkpt>
      <trkpt lat="46.75846" lon="6.30718">
        <ele>962</ele>
        <time>2021-11-21T16:11:42+01:00</time>
      </trkpt>
      <trkpt lat="46.75817" lon="6.30671">
        <ele>956</ele>
        <time>2021-11-21T16:11:47+01:00</time>
      </trkpt>
      <trkpt lat="46.75796" lon="6.30637">
        <ele>951</ele>
        <time>2021-11-21T16:11:52+01:00</time>
      </trkpt>
      <trkpt lat="46.75758" lon="6.3062">
        <ele>944</ele>
        <time>2021-11-21T16:11:57+01:00</time>
      </trkpt>
      <trkpt lat="46.75705" lon="6.30628">
        <ele>932</ele>
        <time>2021-11-21T16:12:02+01:00</time>
      </trkpt>
      <trkpt lat="46.75671" lon="6.30585">
        <ele>926</ele>
        <time>2021-11-21T16:12:07+01:00</time>
      </trkpt>
      <trkpt lat="46.75626" lon="6.30542">
        <ele>917</ele>
        <time>2021-11-21T16:12:12+01:00</time>
      </trkpt>
      <trkpt lat="46.75596" lon="6.30508">
        <ele>910</ele>
        <time>2021-11-21T16:12:17+01:00</time>
      </trkpt>
      <trkpt lat="46.75564" lon="6.30485">
        <ele>901</ele>
        <time>2021-11-21T16:12:22+01:00</time>
      </trkpt>
      <trkpt lat="46.75545" lon="6.30439">
        <ele>898</ele>
        <time>2021-11-21T16:12:27+01:00</time>
      </trkpt>
      <trkpt lat="46.75511" lon="6.30431">
        <ele>895</ele>
        <time>2021-11-21T16:12:32+01:00</time>
      </trkpt>
      <trkpt lat="46.75471" lon="6.3048">
        <ele>895</ele>
        <time>2021-11-21T16:12:37+01:00</time>
      </trkpt>
      <trkpt lat="46.75441" lon="6.30573">
        <ele>895</ele>
        <time>2021-11-21T16:12:42+01:00</time>
      </trkpt>
      <trkpt lat="46.75418" lon="6.30609">
        <ele>895</ele>
        <time>2021-11-21T16:12:47+01:00</time>
      </trkpt>
      <trkpt lat="46.75358" lon="6.30558">
        <ele>895</ele>
        <time>2021-11-21T16:12:52+01:00</time>
      </trkpt>
      <trkpt lat="46.75301" lon="6.30512">
        <ele>896</ele>
        <time>2021-11-21T16:12:57+01:00</time>
      </trkpt>
      <trkpt lat="46.75264" lon="6.30502">
        <ele>897</ele>
        <time>2021-11-21T16:13:02+01:00</time>
      </trkpt>
      <trkpt lat="46.75266" lon="6.30502">
        <ele>897</ele>
        <time>2021-11-21T16:13:07+01:00</time>
      </trkpt>
    </trkseg>
  </trk>
</gpx>